sensor_id;sensor_type;location;lat;lon;timestamp;pressure;altitude;pressure_sealevel;temperature;humidity
16100;BME280;8154;50.830;12.082;2022-08-05T00:01:21;98999.44;;;29.46;37.32
16100;BME280;8154;50.830;12.082;2022-08-05T00:04:06;98998.63;;;29.46;37.22
16100;BME280;8154;50.830;12.082;2022-08-05T00:06:50;99024.50;;;29.47;37.23
16100;BME280;8154;50.830;12.082;2022-08-05T00:09:34;99029.22;;;29.40;37.57
16100;BME280;8154;50.830;12.082;2022-08-05T00:12:18;99031.09;;;29.39;37.48
16100;BME280;8154;50.830;12.082;2022-08-05T00:15:03;99038.94;;;29.41;37.44
16100;BME280;8154;50.830;12.082;2022-08-05T00:17:48;99024.56;;;29.35;37.29
16100;BME280;8154;50.830;12.082;2022-08-05T00:20:31;99023.03;;;29.39;37.19
16100;BME280;8154;50.830;12.082;2022-08-05T00:23:16;99021.13;;;29.40;37.42
16100;BME280;8154;50.830;12.082;2022-08-05T00:26:00;99013.16;;;29.45;37.16
16100;BME280;8154;50.830;12.082;2022-08-05T00:28:44;99017.78;;;29.49;36.84
16100;BME280;8154;50.830;12.082;2022-08-05T00:31:29;99026.13;;;29.48;36.73
16100;BME280;8154;50.830;12.082;2022-08-05T00:34:13;99032.31;;;29.48;36.99
16100;BME280;8154;50.830;12.082;2022-08-05T00:36:59;99031.50;;;29.48;36.58
16100;BME280;8154;50.830;12.082;2022-08-05T00:39:43;99021.56;;;29.48;36.72
16100;BME280;8154;50.830;12.082;2022-08-05T00:42:33;99026.13;;;29.48;36.53
16100;BME280;8154;50.830;12.082;2022-08-05T00:45:18;99025.03;;;29.49;36.52
16100;BME280;8154;50.830;12.082;2022-08-05T00:48:03;99037.72;;;29.48;36.40
16100;BME280;8154;50.830;12.082;2022-08-05T00:50:48;99030.19;;;29.50;36.56
16100;BME280;8154;50.830;12.082;2022-08-05T00:53:33;99032.09;;;29.50;36.48
16100;BME280;8154;50.830;12.082;2022-08-05T00:56:17;99020.50;;;29.49;36.46
16100;BME280;8154;50.830;12.082;2022-08-05T00:59:01;99017.78;;;29.49;36.15
16100;BME280;8154;50.830;12.082;2022-08-05T01:01:46;99019.16;;;29.52;36.30
16100;BME280;8154;50.830;12.082;2022-08-05T01:04:30;99015.59;;;29.46;36.19
16100;BME280;8154;50.830;12.082;2022-08-05T01:07:14;99011.78;;;29.42;36.16
16100;BME280;8154;50.830;12.082;2022-08-05T01:09:59;99007.13;;;29.38;36.03
16100;BME280;8154;50.830;12.082;2022-08-05T01:12:47;99018.34;;;29.35;36.08
16100;BME280;8154;50.830;12.082;2022-08-05T01:15:36;99011.34;;;29.34;36.13
16100;BME280;8154;50.830;12.082;2022-08-05T01:18:25;99023.44;;;29.31;36.40
16100;BME280;8154;50.830;12.082;2022-08-05T01:30:35;99010.84;;;29.37;35.97
16100;BME280;8154;50.830;12.082;2022-08-05T01:33:25;99006.28;;;29.37;36.31
16100;BME280;8154;50.830;12.082;2022-08-05T01:36:14;99017.31;;;29.36;36.01
16100;BME280;8154;50.830;12.082;2022-08-05T01:39:00;99016.25;;;29.37;36.35
16100;BME280;8154;50.830;12.082;2022-08-05T01:41:45;99013.53;;;29.37;35.87
16100;BME280;8154;50.830;12.082;2022-08-05T01:44:32;99010.84;;;29.37;35.88
16100;BME280;8154;50.830;12.082;2022-08-05T01:47:19;99002.19;;;29.35;35.98
16100;BME280;8154;50.830;12.082;2022-08-05T01:50:09;99010.50;;;29.33;36.24
16100;BME280;8154;50.830;12.082;2022-08-05T01:52:59;99007.28;;;29.31;36.42
16100;BME280;8154;50.830;12.082;2022-08-05T01:55:45;99009.47;;;29.34;36.14
16100;BME280;8154;50.830;12.082;2022-08-05T01:58:30;99015.09;;;29.33;36.25
16100;BME280;8154;50.830;12.082;2022-08-05T02:01:19;99007.28;;;29.31;36.14
16100;BME280;8154;50.830;12.082;2022-08-05T02:04:04;99007.28;;;29.31;36.01
16100;BME280;8154;50.830;12.082;2022-08-05T02:06:49;99010.75;;;29.32;36.29
16100;BME280;8154;50.830;12.082;2022-08-05T02:09:34;99008.91;;;29.32;36.21
16100;BME280;8154;50.830;12.082;2022-08-05T02:15:07;99013.16;;;29.28;36.23
16100;BME280;8154;50.830;12.082;2022-08-05T02:18:04;99012.31;;;29.28;36.15
16100;BME280;8154;50.830;12.082;2022-08-05T02:20:56;99011.25;;;29.29;36.38
16100;BME280;8154;50.830;12.082;2022-08-05T02:23:46;99009.88;;;29.26;36.18
16100;BME280;8154;50.830;12.082;2022-08-05T02:26:39;99003.13;;;29.24;36.12
16100;BME280;8154;50.830;12.082;2022-08-05T02:29:27;99005.31;;;29.27;35.96
16100;BME280;8154;50.830;12.082;2022-08-05T02:32:12;99011.50;;;29.27;36.03
16100;BME280;8154;50.830;12.082;2022-08-05T02:34:59;99007.78;;;29.28;35.90
16100;BME280;8154;50.830;12.082;2022-08-05T02:37:45;99011.25;;;29.29;35.89
16100;BME280;8154;50.830;12.082;2022-08-05T02:40:30;99014.53;;;29.31;36.16
16100;BME280;8154;50.830;12.082;2022-08-05T02:43:17;99008.06;;;29.32;35.52
16100;BME280;8154;50.830;12.082;2022-08-05T02:46:03;99010.47;;;29.28;35.66
16100;BME280;8154;50.830;12.082;2022-08-05T02:48:48;99008.56;;;29.29;35.82
16100;BME280;8154;50.830;12.082;2022-08-05T02:51:36;99009.06;;;29.26;36.07
16100;BME280;8154;50.830;12.082;2022-08-05T02:54:21;99011.50;;;29.27;35.67
16100;BME280;8154;50.830;12.082;2022-08-05T02:57:07;99008.00;;;29.27;35.57
16100;BME280;8154;50.830;12.082;2022-08-05T02:59:53;99013.63;;;29.25;35.42
16100;BME280;8154;50.830;12.082;2022-08-05T03:02:39;99009.53;;;29.23;35.58
16100;BME280;8154;50.830;12.082;2022-08-05T03:05:24;99002.53;;;29.22;35.60
16100;BME280;8154;50.830;12.082;2022-08-05T03:08:11;99009.53;;;29.23;35.75
16100;BME280;8154;50.830;12.082;2022-08-05T03:10:55;99008.75;;;29.22;35.53
16100;BME280;8154;50.830;12.082;2022-08-05T03:13:40;99013.31;;;29.22;35.51
16100;BME280;8154;50.830;12.082;2022-08-05T03:16:24;99019.50;;;29.22;35.55
16100;BME280;8154;50.830;12.082;2022-08-05T03:19:08;99013.31;;;29.22;35.82
16100;BME280;8154;50.830;12.082;2022-08-05T03:21:53;99007.09;;;29.21;35.61
16100;BME280;8154;50.830;12.082;2022-08-05T03:24:37;99009.53;;;29.23;35.82
16100;BME280;8154;50.830;12.082;2022-08-05T03:27:22;99017.31;;;29.19;35.44
16100;BME280;8154;50.830;12.082;2022-08-05T03:30:07;99034.25;;;29.20;35.69
16100;BME280;8154;50.830;12.082;2022-08-05T03:32:52;99036.38;;;29.18;35.86
16100;BME280;8154;50.830;12.082;2022-08-05T03:35:37;99028.31;;;29.18;35.72
16100;BME280;8154;50.830;12.082;2022-08-05T03:38:22;99041.69;;;29.13;35.68
16100;BME280;8154;50.830;12.082;2022-08-05T03:41:06;99032.28;;;29.15;35.80
16100;BME280;8154;50.830;12.082;2022-08-05T03:43:50;99032.28;;;29.15;35.75
16100;BME280;8154;50.830;12.082;2022-08-05T03:46:34;99018.25;;;29.13;35.68
16100;BME280;8154;50.830;12.082;2022-08-05T03:49:19;99016.38;;;29.14;35.90
16100;BME280;8154;50.830;12.082;2022-08-05T03:52:08;99013.09;;;29.12;35.78
16100;BME280;8154;50.830;12.082;2022-08-05T03:54:55;99023.88;;;29.12;35.78
16100;BME280;8154;50.830;12.082;2022-08-05T03:57:43;99018.50;;;29.12;35.72
16100;BME280;8154;50.830;12.082;2022-08-05T04:00:28;99024.38;;;29.09;35.69
16100;BME280;8154;50.830;12.082;2022-08-05T04:03:16;99031.06;;;29.06;36.13
16100;BME280;8154;50.830;12.082;2022-08-05T04:06:02;99048.47;;;29.04;36.01
16100;BME280;8154;50.830;12.082;2022-08-05T04:08:47;99037.38;;;29.00;35.68
16100;BME280;8154;50.830;12.082;2022-08-05T04:11:32;99027.19;;;29.02;35.95
16100;BME280;8154;50.830;12.082;2022-08-05T04:14:18;99044.13;;;29.03;35.88
16100;BME280;8154;50.830;12.082;2022-08-05T04:17:02;99043.09;;;29.04;35.97
16100;BME280;8154;50.830;12.082;2022-08-05T04:19:47;99043.34;;;29.02;35.79
16100;BME280;8154;50.830;12.082;2022-08-05T04:22:32;99047.41;;;29.05;35.59
16100;BME280;8154;50.830;12.082;2022-08-05T04:25:16;99073.19;;;29.01;35.88
16100;BME280;8154;50.830;12.082;2022-08-05T04:28:00;99125.34;;;29.00;35.70
16100;BME280;8154;50.830;12.082;2022-08-05T04:30:46;99173.66;;;28.94;35.63
16100;BME280;8154;50.830;12.082;2022-08-05T04:33:30;99129.03;;;28.82;35.96
16100;BME280;8154;50.830;12.082;2022-08-05T04:36:15;99121.41;;;28.79;36.12
16100;BME280;8154;50.830;12.082;2022-08-05T04:39:00;99140.03;;;28.80;36.01
16100;BME280;8154;50.830;12.082;2022-08-05T04:41:45;99135.81;;;28.84;36.31
16100;BME280;8154;50.830;12.082;2022-08-05T04:44:30;99139.56;;;28.83;36.00
16100;BME280;8154;50.830;12.082;2022-08-05T04:47:15;99133.69;;;28.86;36.00
16100;BME280;8154;50.830;12.082;2022-08-05T04:49:59;99152.63;;;28.91;36.08
16100;BME280;8154;50.830;12.082;2022-08-05T04:52:43;99160.22;;;28.94;35.85
16100;BME280;8154;50.830;12.082;2022-08-05T04:55:27;99161.63;;;28.97;35.95
16100;BME280;8154;50.830;12.082;2022-08-05T04:58:15;99167.34;;;29.01;35.88
16100;BME280;8154;50.830;12.082;2022-08-05T05:00:59;99155.88;;;29.05;36.25
16100;BME280;8154;50.830;12.082;2022-08-05T05:03:43;99156.47;;;29.07;36.22
16100;BME280;8154;50.830;12.082;2022-08-05T05:06:27;99159.97;;;29.08;35.95
16100;BME280;8154;50.830;12.082;2022-08-05T05:09:11;99159.25;;;29.12;36.24
16100;BME280;8154;50.830;12.082;2022-08-05T05:11:55;99163.34;;;29.15;36.24
16100;BME280;8154;50.830;12.082;2022-08-05T05:14:41;99160.75;;;29.20;36.20
16100;BME280;8154;50.830;12.082;2022-08-05T05:17:25;99158.16;;;29.25;36.25
16100;BME280;8154;50.830;12.082;2022-08-05T05:20:10;99145.06;;;29.28;36.48
16100;BME280;8154;50.830;12.082;2022-08-05T05:22:56;99149.72;;;29.33;36.34
16100;BME280;8154;50.830;12.082;2022-08-05T05:25:42;99147.38;;;29.36;36.20
16100;BME280;8154;50.830;12.082;2022-08-05T05:28:27;99152.56;;;29.43;36.26
16100;BME280;8154;50.830;12.082;2022-08-05T05:31:11;99149.63;;;29.44;36.41
16100;BME280;8154;50.830;12.082;2022-08-05T05:33:55;99157.56;;;29.51;36.41
16100;BME280;8154;50.830;12.082;2022-08-05T05:36:40;99157.34;;;29.52;36.25
16100;BME280;8154;50.830;12.082;2022-08-05T05:39:24;99147.25;;;29.59;36.44
16100;BME280;8154;50.830;12.082;2022-08-05T05:42:09;99148.63;;;29.62;35.95
16100;BME280;8154;50.830;12.082;2022-08-05T05:44:53;99151.44;;;29.67;36.11
16100;BME280;8154;50.830;12.082;2022-08-05T05:47:38;99160.06;;;29.69;36.33
16100;BME280;8154;50.830;12.082;2022-08-05T05:50:23;99155.28;;;29.71;36.36
16100;BME280;8154;50.830;12.082;2022-08-05T05:53:08;99152.91;;;29.74;36.36
16100;BME280;8154;50.830;12.082;2022-08-05T05:55:54;99154.53;;;29.75;36.41
16100;BME280;8154;50.830;12.082;2022-08-05T05:58:38;99145.72;;;29.80;36.30
16100;BME280;8154;50.830;12.082;2022-08-05T06:01:22;99149.00;;;29.82;35.94
16100;BME280;8154;50.830;12.082;2022-08-05T06:04:07;99152.81;;;29.86;36.02
16100;BME280;8154;50.830;12.082;2022-08-05T06:06:52;99155.03;;;29.89;36.02
16100;BME280;8154;50.830;12.082;2022-08-05T06:09:37;99170.16;;;29.90;35.86
16100;BME280;8154;50.830;12.082;2022-08-05T06:12:21;99182.31;;;29.92;36.08
16100;BME280;8154;50.830;12.082;2022-08-05T06:15:06;99197.09;;;29.90;36.02
16100;BME280;8154;50.830;12.082;2022-08-05T06:17:51;99205.66;;;29.87;36.07
16100;BME280;8154;50.830;12.082;2022-08-05T06:20:36;99237.66;;;29.83;36.33
16100;BME280;8154;50.830;12.082;2022-08-05T06:23:20;99266.72;;;29.81;36.53
16100;BME280;8154;50.830;12.082;2022-08-05T06:26:04;99266.97;;;29.80;36.71
16100;BME280;8154;50.830;12.082;2022-08-05T06:28:48;99259.59;;;29.75;36.67
16100;BME280;8154;50.830;12.082;2022-08-05T06:31:32;99274.38;;;29.73;36.64
16100;BME280;8154;50.830;12.082;2022-08-05T06:34:17;99259.59;;;29.75;36.21
16100;BME280;8154;50.830;12.082;2022-08-05T06:37:02;99242.63;;;29.75;36.54
16100;BME280;8154;50.830;12.082;2022-08-05T06:39:46;99249.66;;;29.76;36.17
16100;BME280;8154;50.830;12.082;2022-08-05T06:42:30;99250.72;;;29.75;36.61
16100;BME280;8154;50.830;12.082;2022-08-05T06:45:14;99249.91;;;29.74;36.16
16100;BME280;8154;50.830;12.082;2022-08-05T06:47:59;99261.50;;;29.75;36.36
16100;BME280;8154;50.830;12.082;2022-08-05T06:50:43;99264.19;;;29.75;36.65
16100;BME280;8154;50.830;12.082;2022-08-05T06:53:27;99249.31;;;29.72;36.64
16100;BME280;8154;50.830;12.082;2022-08-05T06:56:11;99246.72;;;29.77;36.78
16100;BME280;8154;50.830;12.082;2022-08-05T06:58:56;99239.53;;;29.83;36.51
16100;BME280;8154;50.830;12.082;2022-08-05T07:01:40;99242.81;;;29.85;36.22
16100;BME280;8154;50.830;12.082;2022-08-05T07:04:25;99242.81;;;29.85;36.44
16100;BME280;8154;50.830;12.082;2022-08-05T07:07:09;99255.31;;;29.91;36.54
16100;BME280;8154;50.830;12.082;2022-08-05T07:09:53;99246.19;;;29.92;36.16
16100;BME280;8154;50.830;12.082;2022-08-05T07:12:37;99245.69;;;29.95;36.09
16100;BME280;8154;50.830;12.082;2022-08-05T07:15:40;99253.53;;;29.96;36.33
16100;BME280;8154;50.830;12.082;2022-08-05T07:19:03;99257.63;;;29.99;36.44
16100;BME280;8154;50.830;12.082;2022-08-05T07:21:48;99262.53;;;30.02;36.09
16100;BME280;8154;50.830;12.082;2022-08-05T07:24:33;99264.13;;;30.03;36.02
16100;BME280;8154;50.830;12.082;2022-08-05T07:27:17;99264.25;;;30.08;36.33
16100;BME280;8154;50.830;12.082;2022-08-05T07:30:02;99258.69;;;30.14;36.21
16100;BME280;8154;50.830;12.082;2022-08-05T07:32:46;99258.56;;;30.21;36.22
16100;BME280;8154;50.830;12.082;2022-08-05T07:35:31;99260.28;;;30.27;36.14
16100;BME280;8154;50.830;12.082;2022-08-05T07:38:16;99264.03;;;30.26;36.13
16100;BME280;8154;50.830;12.082;2022-08-05T07:41:06;99263.47;;;30.24;35.67
16100;BME280;8154;50.830;12.082;2022-08-05T07:43:52;99277.06;;;30.29;36.21
16100;BME280;8154;50.830;12.082;2022-08-05T07:46:36;99278.09;;;30.28;35.83
16100;BME280;8154;50.830;12.082;2022-08-05T07:49:21;99282.44;;;30.29;35.83
16100;BME280;8154;50.830;12.082;2022-08-05T07:52:05;99283.00;;;30.31;36.18
16100;BME280;8154;50.830;12.082;2022-08-05T07:54:49;99278.78;;;30.35;36.21
16100;BME280;8154;50.830;12.082;2022-08-05T07:57:34;99284.47;;;30.38;36.07
16100;BME280;8154;50.830;12.082;2022-08-05T08:00:18;99290.34;;;30.35;35.77
16100;BME280;8154;50.830;12.082;2022-08-05T08:03:02;99300.25;;;30.30;36.21
16100;BME280;8154;50.830;12.082;2022-08-05T08:05:47;99298.63;;;30.29;35.87
16100;BME280;8154;50.830;12.082;2022-08-05T08:08:33;99297.06;;;30.33;36.23
16100;BME280;8154;50.830;12.082;2022-08-05T08:11:18;99293.47;;;30.27;36.05
16100;BME280;8154;50.830;12.082;2022-08-05T08:14:03;99287.84;;;30.29;36.06
16100;BME280;8154;50.830;12.082;2022-08-05T08:16:47;99288.38;;;30.31;35.84
16100;BME280;8154;50.830;12.082;2022-08-05T08:19:31;99295.44;;;30.32;35.82
16100;BME280;8154;50.830;12.082;2022-08-05T08:22:16;99290.03;;;30.32;35.94
16100;BME280;8154;50.830;12.082;2022-08-05T08:25:00;99285.44;;;30.32;35.77
16100;BME280;8154;50.830;12.082;2022-08-05T08:27:44;99299.50;;;30.34;36.02
16100;BME280;8154;50.830;12.082;2022-08-05T08:30:28;99288.56;;;30.41;36.13
16100;BME280;8154;50.830;12.082;2022-08-05T08:33:13;99279.66;;;30.40;36.02
16100;BME280;8154;50.830;12.082;2022-08-05T08:35:57;99268.88;;;30.40;36.04
16100;BME280;8154;50.830;12.082;2022-08-05T08:38:42;99268.63;;;30.42;35.69
16100;BME280;8154;50.830;12.082;2022-08-05T08:41:29;99254.56;;;30.40;36.00
16100;BME280;8154;50.830;12.082;2022-08-05T08:44:18;99260.44;;;30.37;35.81
16100;BME280;8154;50.830;12.082;2022-08-05T08:47:05;99262.66;;;30.40;36.17
16100;BME280;8154;50.830;12.082;2022-08-05T08:49:52;99259.53;;;30.48;36.00
16100;BME280;8154;50.830;12.082;2022-08-05T08:52:37;99256.59;;;30.50;35.70
16100;BME280;8154;50.830;12.082;2022-08-05T08:55:22;99258.00;;;30.52;35.91
16100;BME280;8154;50.830;12.082;2022-08-05T08:58:08;99257.53;;;30.55;35.69
16100;BME280;8154;50.830;12.082;2022-08-05T09:00:53;99247.53;;;30.56;35.87
16100;BME280;8154;50.830;12.082;2022-08-05T09:03:39;99247.78;;;30.54;35.73
16100;BME280;8154;50.830;12.082;2022-08-05T09:06:25;99229.47;;;30.56;35.56
16100;BME280;8154;50.830;12.082;2022-08-05T09:09:11;99227.09;;;30.60;35.73
16100;BME280;8154;50.830;12.082;2022-08-05T09:11:55;99225.53;;;30.64;35.42
16100;BME280;8154;50.830;12.082;2022-08-05T09:14:40;99224.16;;;30.61;35.47
16100;BME280;8154;50.830;12.082;2022-08-05T09:17:24;99224.16;;;30.61;35.39
16100;BME280;8154;50.830;12.082;2022-08-05T09:20:09;99230.59;;;30.60;35.44
16100;BME280;8154;50.830;12.082;2022-08-05T09:23:12;99229.06;;;30.64;35.41
16100;BME280;8154;50.830;12.082;2022-08-05T09:28:53;99232.50;;;30.60;35.38
16100;BME280;8154;50.830;12.082;2022-08-05T09:31:42;99228.22;;;30.64;35.80
16100;BME280;8154;50.830;12.082;2022-08-05T09:34:53;99237.72;;;30.66;35.36
16100;BME280;8154;50.830;12.082;2022-08-05T09:37:48;99235.03;;;30.66;35.65
16100;BME280;8154;50.830;12.082;2022-08-05T09:40:37;99231.00;;;30.69;35.66
16100;BME280;8154;50.830;12.082;2022-08-05T09:43:35;99231.25;;;30.67;35.95
16100;BME280;8154;50.830;12.082;2022-08-05T09:46:30;99234.28;;;30.71;35.85
16100;BME280;8154;50.830;12.082;2022-08-05T09:49:24;99240.44;;;30.66;35.92
16100;BME280;8154;50.830;12.082;2022-08-05T09:55:08;99235.75;;;30.62;35.61
16100;BME280;8154;50.830;12.082;2022-08-05T09:57:53;99235.50;;;30.63;35.72
16100;BME280;8154;50.830;12.082;2022-08-05T10:00:37;99236.00;;;30.60;35.78
16100;BME280;8154;50.830;12.082;2022-08-05T10:03:22;99228.47;;;30.62;35.70
16100;BME280;8154;50.830;12.082;2022-08-05T10:06:08;99220.38;;;30.62;35.94
16100;BME280;8154;50.830;12.082;2022-08-05T10:08:53;99231.41;;;30.61;35.96
16100;BME280;8154;50.830;12.082;2022-08-05T10:11:39;99227.97;;;30.65;35.73
16100;BME280;8154;50.830;12.082;2022-08-05T10:14:28;99225.53;;;30.64;35.49
16100;BME280;8154;50.830;12.082;2022-08-05T10:17:14;99228.22;;;30.64;35.67
16100;BME280;8154;50.830;12.082;2022-08-05T10:19:58;99216.44;;;30.70;35.79
16100;BME280;8154;50.830;12.082;2022-08-05T10:22:43;99220.22;;;30.69;35.56
16100;BME280;8154;50.830;12.082;2022-08-05T10:25:27;99208.03;;;30.66;35.52
16100;BME280;8154;50.830;12.082;2022-08-05T10:28:12;99199.97;;;30.66;35.44
16100;BME280;8154;50.830;12.082;2022-08-05T10:30:58;99195.69;;;30.70;35.64
16100;BME280;8154;50.830;12.082;2022-08-05T10:33:43;99193.47;;;30.67;35.79
16100;BME280;8154;50.830;12.082;2022-08-05T10:36:28;99188.34;;;30.66;35.35
16100;BME280;8154;50.830;12.082;2022-08-05T10:39:20;99187.00;;;30.68;35.59
16100;BME280;8154;50.830;12.082;2022-08-05T10:42:21;99179.66;;;30.64;35.79
16100;BME280;8154;50.830;12.082;2022-08-05T10:45:07;99185.31;;;30.62;35.38
16100;BME280;8154;50.830;12.082;2022-08-05T10:47:53;99180.91;;;30.56;35.69
16100;BME280;8154;50.830;12.082;2022-08-05T10:50:58;99176.66;;;30.60;35.51
16100;BME280;8154;50.830;12.082;2022-08-05T10:56:47;99162.47;;;30.70;35.50
16100;BME280;8154;50.830;12.082;2022-08-05T10:59:32;99167.38;;;30.73;35.47
16100;BME280;8154;50.830;12.082;2022-08-05T11:02:18;99158.56;;;30.77;34.92
16100;BME280;8154;50.830;12.082;2022-08-05T11:05:13;99153.63;;;30.74;35.13
16100;BME280;8154;50.830;12.082;2022-08-05T11:08:07;99145.75;;;30.68;35.41
16100;BME280;8154;50.830;12.082;2022-08-05T11:10:52;99142.47;;;30.66;35.22
16100;BME280;8154;50.830;12.082;2022-08-05T11:13:41;99139.34;;;30.74;34.93
16100;BME280;8154;50.830;12.082;2022-08-05T11:16:26;99133.56;;;30.65;34.92
16100;BME280;8154;50.830;12.082;2022-08-05T11:19:30;99138.88;;;30.77;34.93
16100;BME280;8154;50.830;12.082;2022-08-05T11:22:43;99141.97;;;30.69;34.95
16100;BME280;8154;50.830;12.082;2022-08-05T11:36:48;99126.00;;;30.84;34.60
16100;BME280;8154;50.830;12.082;2022-08-05T11:39:48;99128.44;;;30.85;34.02
16100;BME280;8154;50.830;12.082;2022-08-05T11:42:34;99121.94;;;30.81;34.21
16100;BME280;8154;50.830;12.082;2022-08-05T11:45:24;99119.56;;;30.85;34.06
16100;BME280;8154;50.830;12.082;2022-08-05T11:48:08;99121.75;;;30.88;34.08
16100;BME280;8154;50.830;12.082;2022-08-05T11:50:53;99119.59;;;30.90;33.95
16100;BME280;8154;50.830;12.082;2022-08-05T11:53:39;99118.84;;;30.94;33.77
16100;BME280;8154;50.830;12.082;2022-08-05T11:56:24;99120.41;;;30.90;33.37
16100;BME280;8154;50.830;12.082;2022-08-05T11:59:15;99114.16;;;30.85;33.37
16100;BME280;8154;50.830;12.082;2022-08-05T12:04:47;99109.81;;;30.84;32.68
16100;BME280;8154;50.830;12.082;2022-08-05T12:07:33;99116.03;;;30.84;33.08
16100;BME280;8154;50.830;12.082;2022-08-05T12:10:18;99116.03;;;30.84;33.00
16100;BME280;8154;50.830;12.082;2022-08-05T12:13:06;99109.28;;;30.82;32.98
16100;BME280;8154;50.830;12.082;2022-08-05T12:15:51;99115.97;;;30.79;33.07
16100;BME280;8154;50.830;12.082;2022-08-05T12:18:35;99113.00;;;30.81;32.55
16100;BME280;8154;50.830;12.082;2022-08-05T12:21:28;99113.84;;;30.81;32.87
16100;BME280;8154;50.830;12.082;2022-08-05T12:24:18;99127.84;;;30.78;33.01
16100;BME280;8154;50.830;12.082;2022-08-05T12:27:03;99132.06;;;30.74;33.00
16100;BME280;8154;50.830;12.082;2022-08-05T12:30:02;99135.81;;;30.73;32.86
16100;BME280;8154;50.830;12.082;2022-08-05T12:32:47;99143.19;;;30.78;32.87
16100;BME280;8154;50.830;12.082;2022-08-05T12:35:38;99128.63;;;30.79;32.50
16100;BME280;8154;50.830;12.082;2022-08-05T12:38:23;99130.44;;;30.73;32.82
16100;BME280;8154;50.830;12.082;2022-08-05T12:41:11;99133.72;;;30.75;32.48
16100;BME280;8154;50.830;12.082;2022-08-05T12:43:58;99131.03;;;30.75;32.57
16100;BME280;8154;50.830;12.082;2022-08-05T12:46:51;99129.97;;;30.76;32.59
16100;BME280;8154;50.830;12.082;2022-08-05T12:49:46;99131.56;;;30.77;32.59
16100;BME280;8154;50.830;12.082;2022-08-05T12:52:34;99138.28;;;30.75;32.63
16100;BME280;8154;50.830;12.082;2022-08-05T12:55:22;99149.06;;;30.75;32.12
16100;BME280;8154;50.830;12.082;2022-08-05T12:58:06;99158.00;;;30.75;32.41
16100;BME280;8154;50.830;12.082;2022-08-05T13:00:51;99152.13;;;30.78;32.32
16100;BME280;8154;50.830;12.082;2022-08-05T13:03:36;99146.03;;;30.71;32.21
16100;BME280;8154;50.830;12.082;2022-08-05T13:06:20;99145.00;;;30.72;32.22
16100;BME280;8154;50.830;12.082;2022-08-05T13:09:12;99151.69;;;30.70;32.42
16100;BME280;8154;50.830;12.082;2022-08-05T13:12:04;99146.28;;;30.70;32.25
16100;BME280;8154;50.830;12.082;2022-08-05T13:14:59;99151.53;;;30.76;32.06
16100;BME280;8154;50.830;12.082;2022-08-05T13:17:53;99144.03;;;30.78;32.59
16100;BME280;8154;50.830;12.082;2022-08-05T13:20:38;99137.56;;;30.79;32.49
16100;BME280;8154;50.830;12.082;2022-08-05T13:23:22;99143.44;;;30.76;32.39
16100;BME280;8154;50.830;12.082;2022-08-05T13:26:06;99144.16;;;30.72;32.61
16100;BME280;8154;50.830;12.082;2022-08-05T13:28:50;99143.09;;;30.73;32.49
16100;BME280;8154;50.830;12.082;2022-08-05T13:31:35;99151.19;;;30.73;32.19
16100;BME280;8154;50.830;12.082;2022-08-05T13:34:19;99150.06;;;30.69;32.15
16100;BME280;8154;50.830;12.082;2022-08-05T13:37:03;99157.16;;;30.75;32.53
16100;BME280;8154;50.830;12.082;2022-08-05T13:39:48;99162.81;;;30.73;31.97
16100;BME280;8154;50.830;12.082;2022-08-05T13:42:33;99156.34;;;30.74;32.44
16100;BME280;8154;50.830;12.082;2022-08-05T13:45:17;99151.44;;;30.71;32.17
16100;BME280;8154;50.830;12.082;2022-08-05T13:48:03;99164.94;;;30.71;32.26
16100;BME280;8154;50.830;12.082;2022-08-05T13:50:48;99154.13;;;30.71;31.75
16100;BME280;8154;50.830;12.082;2022-08-05T13:53:32;99160.84;;;30.69;31.78
16100;BME280;8154;50.830;12.082;2022-08-05T13:56:17;99151.94;;;30.68;32.04
16100;BME280;8154;50.830;12.082;2022-08-05T13:59:01;99151.94;;;30.68;32.26
16100;BME280;8154;50.830;12.082;2022-08-05T14:01:45;99144.16;;;30.72;31.83
16100;BME280;8154;50.830;12.082;2022-08-05T14:04:32;99156.78;;;30.66;32.19
16100;BME280;8154;50.830;12.082;2022-08-05T14:07:37;99144.34;;;30.65;31.94
16100;BME280;8154;50.830;12.082;2022-08-05T14:10:22;99150.00;;;30.64;32.08
16100;BME280;8154;50.830;12.082;2022-08-05T14:13:06;99165.13;;;30.65;31.62
16100;BME280;8154;50.830;12.082;2022-08-05T14:15:51;99157.03;;;30.65;31.12
16100;BME280;8154;50.830;12.082;2022-08-05T14:18:35;99160.53;;;30.65;30.58
16100;BME280;8154;50.830;12.082;2022-08-05T14:21:20;99166.44;;;30.62;30.03
16100;BME280;8154;50.830;12.082;2022-08-05T14:24:04;99162.66;;;30.63;30.50
16100;BME280;8154;50.830;12.082;2022-08-05T14:26:48;99175.94;;;30.65;30.41
16100;BME280;8154;50.830;12.082;2022-08-05T14:29:33;99162.19;;;30.66;30.20
16100;BME280;8154;50.830;12.082;2022-08-05T14:32:17;99162.19;;;30.66;29.80
16100;BME280;8154;50.830;12.082;2022-08-05T14:35:02;99168.63;;;30.65;30.00
16100;BME280;8154;50.830;12.082;2022-08-05T14:37:47;99177.53;;;30.66;30.28
16100;BME280;8154;50.830;12.082;2022-08-05T14:40:31;99173.22;;;30.65;29.73
16100;BME280;8154;50.830;12.082;2022-08-05T14:43:15;99172.16;;;30.66;29.67
16100;BME280;8154;50.830;12.082;2022-08-05T14:45:59;99179.41;;;30.65;30.05
16100;BME280;8154;50.830;12.082;2022-08-05T14:48:43;99185.56;;;30.61;30.16
16100;BME280;8154;50.830;12.082;2022-08-05T14:51:27;99185.31;;;30.62;29.93
16100;BME280;8154;50.830;12.082;2022-08-05T14:54:12;99192.91;;;30.65;30.46
16100;BME280;8154;50.830;12.082;2022-08-05T14:56:57;99193.41;;;30.62;30.42
16100;BME280;8154;50.830;12.082;2022-08-05T14:59:41;99197.97;;;30.62;30.71
16100;BME280;8154;50.830;12.082;2022-08-05T15:02:25;99199.13;;;30.66;31.16
16100;BME280;8154;50.830;12.082;2022-08-05T15:05:09;99190.22;;;30.65;31.35
16100;BME280;8154;50.830;12.082;2022-08-05T15:07:54;99193.97;;;30.64;31.22
16100;BME280;8154;50.830;12.082;2022-08-05T15:10:39;99209.66;;;30.67;31.60
16100;BME280;8154;50.830;12.082;2022-08-05T15:13:26;99190.22;;;30.65;31.70
16100;BME280;8154;50.830;12.082;2022-08-05T15:16:11;99196.69;;;30.64;31.67